Time;durP1;ratioP1;P1;durP2;ratioP2;P2;SDS_P1;SDS_P2;PMS_P1;PMS_P2;Temp;Humidity;BMP_temperature;BMP_pressure;BME280_temperature;BME280_humidity;BME280_pressure;Samples;Min_cycle;Max_cycle;Signal;HPM_P1;HPM_P2
2021/03/15 00:03:22;;;;;;;11.07;5.17;;;;;;;7.03;57.64;97486.63;8330123;28;20212;-65
2021/03/15 00:07:33;;;;;;;10.37;5.03;;;;;;;7.05;57.51;97497.69;8331971;28;20287;-65
2021/03/15 00:11:35;;;;;;;8.90;4.97;;;;;;;7.04;57.46;97501.19;8331570;28;20225;-65
2021/03/15 00:15:37;;;;;;;5.57;3.07;;;;;;;7.06;57.08;97498.53;8331548;28;20204;-65
2021/03/15 00:19:38;;;;;;;4.03;2.93;;;;;;;7.18;57.14;97489.53;8330370;28;20212;-64
2021/03/15 00:23:41;;;;;;;3.23;2.03;;;;;;;7.16;57.09;97486.13;8330674;28;20227;-64
2021/03/15 00:27:44;;;;;;;4.43;2.83;;;;;;;7.17;57.07;97485.25;8329387;28;20228;-64
2021/03/15 00:31:46;;;;;;;4.70;2.90;;;;;;;7.15;57.07;97487.88;8330649;28;20208;-64
2021/03/15 00:35:47;;;;;;;7.77;4.07;;;;;;;7.21;56.92;97491.97;8329756;28;20335;-64
2021/03/15 00:39:50;;;;;;;5.93;3.93;;;;;;;7.15;57.25;97477.59;8337629;28;20212;-65
2021/03/15 00:43:52;;;;;;;6.13;3.30;;;;;;;7.10;57.08;97478.66;8337099;28;20246;-65
2021/03/15 00:47:54;;;;;;;4.83;2.60;;;;;;;7.08;57.00;97485.59;8336370;28;20232;-65
2021/03/15 00:51:56;;;;;;;4.20;2.37;;;;;;;6.84;57.84;97483.88;8336088;28;20205;-65
2021/03/15 00:55:59;;;;;;;4.13;2.63;;;;;;;6.99;57.46;97481.66;8334585;28;20200;-65
2021/03/15 01:00:01;;;;;;;6.57;2.87;;;;;;;6.84;58.21;97483.06;8336659;28;20620;-65
2021/03/15 01:04:08;;;;;;;5.57;2.93;;;;;;;6.83;58.39;97474.50;8336146;28;20197;-64
2021/03/15 01:08:15;;;;;;;7.43;3.20;;;;;;;6.90;57.98;97472.53;8336430;28;20223;-64
2021/03/15 01:12:18;;;;;;;6.63;3.17;;;;;;;7.01;57.94;97464.41;8336080;28;20590;-64
2021/03/15 01:16:20;;;;;;;5.47;3.23;;;;;;;6.97;58.11;97455.97;8335436;28;20651;-64
2021/03/15 01:20:22;;;;;;;6.77;4.10;;;;;;;6.90;58.28;97456.25;8335062;28;20201;-64
2021/03/15 01:24:24;;;;;;;6.30;4.17;;;;;;;6.85;58.52;97448.69;8335034;28;20204;-64
2021/03/15 01:28:26;;;;;;;9.30;4.67;;;;;;;6.89;58.51;97450.25;8334897;28;20597;-64
2021/03/15 01:32:28;;;;;;;8.67;4.87;;;;;;;6.83;58.91;97448.75;8334886;28;20204;-64
2021/03/15 01:36:30;;;;;;;6.17;4.60;;;;;;;7.11;58.06;97452.03;8333565;28;20248;-64
2021/03/15 01:40:33;;;;;;;10.27;4.53;;;;;;;6.82;59.05;97438.53;8332215;28;20189;-64
2021/03/15 01:44:36;;;;;;;8.07;4.70;;;;;;;6.81;59.13;97432.50;8333735;28;20645;-64
2021/03/15 01:48:38;;;;;;;7.80;5.20;;;;;;;6.74;58.98;97432.81;8331623;28;20224;-64
2021/03/15 01:52:41;;;;;;;9.37;5.47;;;;;;;6.77;59.24;97435.28;8332581;28;20207;-64
2021/03/15 01:56:43;;;;;;;5.87;4.73;;;;;;;6.81;59.33;97432.50;8332981;28;20338;-64
2021/03/15 02:00:46;;;;;;;8.57;5.13;;;;;;;6.74;59.32;97425.09;8330921;28;20318;-65
2021/03/15 02:04:48;;;;;;;8.77;5.10;;;;;;;6.79;59.38;97418.88;8331564;28;20210;-64
2021/03/15 02:09:01;;;;;;;6.43;4.40;;;;;;;6.71;59.67;97412.34;8331347;28;20224;-64
2021/03/15 02:13:12;;;;;;;8.90;5.07;;;;;;;6.79;59.26;97410.31;8331653;28;20244;-64
2021/03/15 02:17:19;;;;;;;7.03;5.70;;;;;;;6.83;59.39;97406.72;8331133;28;20197;-64
2021/03/15 02:21:54;;;;;;;6.13;4.50;;;;;;;6.94;59.11;97404.56;8331200;28;20196;-64
2021/03/15 02:26:25;;;;;;;7.87;4.40;;;;;;;6.87;59.10;97407.44;8327492;28;20204;-64
2021/03/15 02:30:51;;;;;;;8.00;4.83;;;;;;;6.96;59.09;97404.53;8298125;28;20202;-64
2021/03/15 02:35:03;;;;;;;7.10;4.70;;;;;;;6.91;59.17;97399.56;8277204;28;619726;-64
2021/03/15 02:39:26;;;;;;;7.47;4.83;;;;;;;6.85;59.31;97392.91;8298870;28;20212;-64
2021/03/15 02:43:30;;;;;;;7.43;5.60;;;;;;;6.89;59.35;97392.78;8300217;28;20247;-64
2021/03/15 02:47:32;;;;;;;8.00;5.50;;;;;;;6.95;58.80;97393.41;8299599;28;20240;-64
2021/03/15 02:51:38;;;;;;;8.53;5.90;;;;;;;7.02;58.70;97396.56;8298955;28;20205;-64
2021/03/15 02:55:41;;;;;;;7.80;3.97;;;;;;;6.90;59.05;97394.47;8300453;28;20197;-64
2021/03/15 02:59:44;;;;;;;8.63;5.00;;;;;;;7.13;58.64;97388.41;8298145;28;20213;-64
2021/03/15 03:03:47;;;;;;;7.13;4.60;;;;;;;6.98;59.34;97380.38;8315914;28;20204;-64
2021/03/15 03:07:52;;;;;;;9.90;4.97;;;;;;;6.94;59.90;97386.56;8332411;28;20228;-64
2021/03/15 03:11:55;;;;;;;10.13;5.37;;;;;;;6.88;60.08;97384.22;8332815;28;20232;-64
2021/03/15 03:15:58;;;;;;;6.53;4.50;;;;;;;6.85;60.37;97381.75;8331374;28;20216;-64
2021/03/15 03:20:01;;;;;;;9.10;4.50;;;;;;;6.75;60.15;97376.13;8332297;28;20215;-64
2021/03/15 03:24:05;;;;;;;6.87;4.53;;;;;;;6.94;60.02;97383.16;8330683;28;20212;-64
2021/03/15 03:28:07;;;;;;;5.97;3.60;;;;;;;6.85;60.53;97376.63;8330235;28;20555;-64
2021/03/15 03:32:09;;;;;;;5.60;3.60;;;;;;;6.99;60.11;97376.94;8330510;28;20204;-64
2021/03/15 03:36:11;;;;;;;5.90;3.97;;;;;;;6.84;60.59;97373.22;8331230;28;20239;-64
2021/03/15 03:40:15;;;;;;;6.63;4.63;;;;;;;6.96;60.48;97366.75;8330879;28;20208;-64
2021/03/15 03:44:18;;;;;;;7.90;4.50;;;;;;;7.07;60.20;97363.75;8331468;28;20212;-64
2021/03/15 03:48:19;;;;;;;7.37;4.47;;;;;;;6.99;60.10;97364.06;8331249;28;20629;-64
2021/03/15 03:52:24;;;;;;;8.50;4.83;;;;;;;7.05;60.03;97353.50;8330456;28;20212;-64
2021/03/15 03:56:35;;;;;;;5.53;4.00;;;;;;;7.16;59.86;97352.22;8330477;28;20649;-64
2021/03/15 04:00:38;;;;;;;4.67;4.17;;;;;;;7.00;60.24;97341.72;8329945;28;20200;-65
2021/03/15 04:04:42;;;;;;;4.50;4.00;;;;;;;7.08;60.09;97342.25;8329215;28;20236;-64
2021/03/15 04:08:48;;;;;;;7.10;4.40;;;;;;;7.16;60.08;97341.94;8330341;28;20228;-64
2021/03/15 04:12:55;;;;;;;5.37;4.10;;;;;;;6.93;61.00;97337.69;8329974;28;20239;-64
2021/03/15 04:17:00;;;;;;;7.40;4.53;;;;;;;7.11;60.34;97336.97;8330153;28;20200;-64
2021/03/15 04:21:03;;;;;;;6.27;4.40;;;;;;;7.18;60.27;97342.72;8330818;28;20239;-64
2021/03/15 04:25:07;;;;;;;6.23;4.60;;;;;;;7.01;60.77;97335.69;8330618;28;20204;-64
2021/03/15 04:29:10;;;;;;;7.13;5.00;;;;;;;7.03;61.10;97339.84;8330934;28;20662;-64
2021/03/15 04:33:12;;;;;;;8.13;5.80;;;;;;;7.00;61.29;97323.69;8328427;28;20215;-65
2021/03/15 04:37:15;;;;;;;7.53;5.20;;;;;;;6.91;61.41;97319.78;8329943;28;20243;-64
2021/03/15 04:41:17;;;;;;;7.40;5.00;;;;;;;6.96;61.28;97320.41;8328878;28;20209;-64
2021/03/15 04:45:20;;;;;;;9.70;5.23;;;;;;;6.98;61.01;97318.59;8329789;28;20208;-64
2021/03/15 04:49:23;;;;;;;8.13;5.03;;;;;;;7.04;60.73;97312.38;8330253;28;20239;-65
2021/03/15 04:53:25;;;;;;;9.63;5.30;;;;;;;7.04;60.69;97305.50;8329538;28;20593;-64
2021/03/15 04:57:27;;;;;;;8.03;5.33;;;;;;;7.01;60.70;97300.47;8329530;28;20208;-64
2021/03/15 05:01:30;;;;;;;7.70;5.30;;;;;;;7.09;60.33;97294.19;8329270;28;20559;-65
2021/03/15 05:05:35;;;;;;;8.00;4.90;;;;;;;7.16;59.85;97299.00;8330046;28;20274;-64
2021/03/15 05:09:37;;;;;;;7.93;4.80;;;;;;;7.20;59.77;97292.81;8330942;28;20237;-65
2021/03/15 05:13:44;;;;;;;8.17;5.23;;;;;;;7.13;59.85;97282.84;8330876;28;20197;-64
2021/03/15 05:17:48;;;;;;;7.90;4.67;;;;;;;7.19;59.66;97288.56;8330179;28;20246;-64
2021/03/15 05:21:50;;;;;;;6.80;4.60;;;;;;;7.14;59.76;97287.94;8330718;28;20637;-64
2021/03/15 05:25:52;;;;;;;9.47;5.20;;;;;;;7.09;59.79;97291.59;8333249;28;20224;-65
2021/03/15 05:29:54;;;;;;;8.00;4.70;;;;;;;7.18;59.70;97291.22;8335027;28;20227;-64
2021/03/15 05:33:58;;;;;;;8.47;4.90;;;;;;;7.19;59.65;97282.59;8334783;28;20209;-65
2021/03/15 05:38:00;;;;;;;8.20;5.03;;;;;;;7.11;59.80;97280.31;8333400;28;20209;-64
2021/03/15 05:42:15;;;;;;;8.50;4.50;;;;;;;7.04;59.38;97266.03;8334640;28;20212;-64
2021/03/15 05:46:40;;;;;;;9.53;4.50;;;;;;;7.19;58.82;97257.66;8335664;28;20205;-65
2021/03/15 05:51:06;;;;;;;7.57;4.40;;;;;;;7.18;58.93;97263.72;8334160;28;20231;-64
2021/03/15 05:55:24;;;;;;;7.53;4.50;;;;;;;7.26;58.43;97263.41;8300950;28;20227;-64
2021/03/15 06:00:13;;;;;;;7.40;4.13;;;;;;;7.31;58.20;97258.03;8334055;28;20208;-65
2021/03/15 06:04:53;;;;;;;11.40;4.00;;;;;;;7.29;58.14;97250.41;8334027;28;20655;-64
2021/03/15 06:09:01;;;;;;;7.50;4.33;;;;;;;7.30;57.79;97241.75;8367585;28;20690;-65
2021/03/15 06:13:05;;;;;;;8.63;4.03;;;;;;;7.33;57.40;97245.94;8366857;28;20227;-64
2021/03/15 06:17:09;;;;;;;10.73;4.23;;;;;;;7.36;57.37;97243.25;8367645;28;20644;-64
2021/03/15 06:21:12;;;;;;;6.60;4.03;;;;;;;7.40;57.25;97235.31;8366053;28;20699;-64
2021/03/15 06:25:15;;;;;;;8.50;4.30;;;;;;;7.46;57.38;97234.19;8366296;28;20204;-64
2021/03/15 06:29:16;;;;;;;7.07;3.87;;;;;;;7.58;57.13;97231.09;8365726;28;20235;-64
2021/03/15 06:33:19;;;;;;;10.63;4.40;;;;;;;7.63;57.24;97231.75;8365690;28;20207;-64
2021/03/15 06:37:20;;;;;;;7.77;4.20;;;;;;;7.55;57.48;97231.22;8363223;28;20227;-69
2021/03/15 06:41:24;;;;;;;7.97;4.20;;;;;;;7.61;57.78;97224.97;8364157;28;20558;-65
2021/03/15 06:45:26;;;;;;;11.87;5.30;;;;;;;7.54;57.70;97232.16;8364552;28;20727;-65
2021/03/15 06:49:30;;;;;;;10.20;4.80;;;;;;;7.28;58.24;97235.00;8364492;28;20365;-65
2021/03/15 06:53:37;;;;;;;12.90;5.03;;;;;;;7.54;58.23;97234.72;8364359;28;20215;-65
2021/03/15 06:57:39;;;;;;;12.27;5.50;;;;;;;7.67;58.21;97226.44;8364190;28;20212;-65
2021/03/15 07:01:43;;;;;;;10.80;5.13;;;;;;;7.72;58.64;97227.09;8359520;28;20207;-65
2021/03/15 07:05:55;;;;;;;12.53;6.20;;;;;;;7.74;58.71;97226.09;8331576;28;20639;-65
2021/03/15 07:09:56;;;;;;;7.40;3.57;;;;;;;7.57;58.97;97219.13;8330920;28;20228;-65
2021/03/15 07:14:00;;;;;;;9.10;3.43;;;;;;;7.58;59.40;97212.25;8330977;28;20208;-66
2021/03/15 07:18:13;;;;;;;8.47;3.70;;;;;;;7.70;59.09;97205.69;8330529;28;20699;-66
2021/03/15 07:22:23;;;;;;;9.67;3.67;;;;;;;7.73;58.83;97206.41;8330789;28;20223;-66
2021/03/15 07:26:26;;;;;;;5.43;2.47;;;;;;;7.53;58.91;97202.13;8330575;28;20217;-66
2021/03/15 07:30:40;;;;;;;10.40;3.23;;;;;;;7.47;59.09;97204.16;8330190;28;20648;-66
2021/03/15 07:34:42;;;;;;;8.80;2.77;;;;;;;7.54;59.28;97202.94;8330341;28;20240;-66
2021/03/15 07:38:44;;;;;;;9.60;3.53;;;;;;;7.46;59.76;97198.13;8329782;28;20208;-66
2021/03/15 07:42:56;;;;;;;8.27;3.60;;;;;;;7.68;59.44;97198.03;8330010;28;20213;-66
2021/03/15 07:47:00;;;;;;;6.93;3.20;;;;;;;7.54;60.17;97196.06;8329227;28;20217;-65
2021/03/15 07:51:08;;;;;;;6.37;2.67;;;;;;;7.57;59.13;97189.94;8329869;28;20315;-66
2021/03/15 07:55:10;;;;;;;5.77;2.90;;;;;;;7.49;59.91;97192.84;8329342;28;20659;-66
2021/03/15 07:59:12;;;;;;;8.07;2.93;;;;;;;7.32;60.35;97198.75;8329886;28;20671;-66
2021/03/15 08:03:14;;;;;;;5.23;2.53;;;;;;;7.39;59.95;97196.75;8329571;28;20216;-66
2021/03/15 08:07:18;;;;;;;4.80;2.60;;;;;;;7.44;60.15;97198.22;8329694;28;20200;-66
2021/03/15 08:11:20;;;;;;;5.03;2.63;;;;;;;7.10;61.37;97198.00;8329807;28;20224;-66
2021/03/15 08:15:23;;;;;;;4.93;2.57;;;;;;;7.06;61.21;97194.72;8329678;28;20527;-67
2021/03/15 08:19:26;;;;;;;6.20;2.80;;;;;;;7.10;61.89;97198.84;8329765;28;20212;-66
2021/03/15 08:23:30;;;;;;;5.33;2.70;;;;;;;7.17;61.99;97191.69;8329905;28;20204;-66
2021/03/15 08:27:36;;;;;;;6.27;2.50;;;;;;;7.15;62.01;97188.34;8329227;28;20232;-66
2021/03/15 08:31:42;;;;;;;6.33;3.00;;;;;;;7.11;62.14;97190.22;8329063;28;20645;-66
2021/03/15 08:35:45;;;;;;;4.93;2.63;;;;;;;7.17;62.09;97189.13;8328745;28;20239;-66
2021/03/15 08:39:47;;;;;;;3.57;2.20;;;;;;;7.40;61.84;97183.78;8329505;28;20632;-65
2021/03/15 08:44:07;;;;;;;5.50;2.97;;;;;;;7.48;61.78;97177.47;8328522;28;20270;-65
2021/03/15 08:48:09;;;;;;;8.27;3.70;;;;;;;8.96;67.31;97173.94;8337189;28;20664;-65
2021/03/15 08:52:13;;;;;;;5.50;2.43;;;;;;;8.17;60.10;97164.00;8331925;28;20212;-64
2021/03/15 08:56:34;;;;;;;2.13;1.93;;;;;;;9.41;59.56;97169.09;8342535;28;20212;-66
2021/03/15 09:00:37;;;;;;;2.43;1.93;;;;;;;8.59;58.28;97163.69;8324261;28;20278;-64
2021/03/15 09:04:45;;;;;;;3.30;1.90;;;;;;;8.45;58.28;97165.28;8336213;28;20208;-63
2021/03/15 09:08:59;;;;;;;3.47;1.50;;;;;;;7.99;59.80;97165.69;8336799;28;20220;-63
2021/03/15 09:13:32;;;;;;;2.30;1.70;;;;;;;7.90;60.38;97166.09;8335056;28;20220;-63
2021/03/15 09:17:34;;;;;;;3.00;1.50;;;;;;;7.84;61.09;97156.91;8335724;28;20196;-63
2021/03/15 09:21:51;;;;;;;2.43;1.57;;;;;;;7.64;61.29;97157.84;8334239;28;20556;-62
2021/03/15 09:26:32;;;;;;;1.90;1.30;;;;;;;7.93;62.08;97160.81;8334874;28;20205;-62
2021/03/15 09:30:35;;;;;;;2.73;1.50;;;;;;;8.19;60.97;97155.28;8332729;28;20236;-62
2021/03/15 09:34:38;;;;;;;2.90;1.20;;;;;;;8.03;60.61;97152.59;8335753;28;20232;-61
2021/03/15 09:38:40;;;;;;;1.30;0.97;;;;;;;8.08;60.91;97143.81;8334344;28;20216;-62
2021/03/15 09:42:44;;;;;;;1.80;1.20;;;;;;;8.00;60.84;97155.31;8334908;28;20212;-61
2021/03/15 09:46:49;;;;;;;1.40;1.23;;;;;;;8.00;61.68;97147.56;8335282;28;20212;-62
2021/03/15 09:50:53;;;;;;;2.03;1.30;;;;;;;8.09;61.46;97156.63;8332085;28;20224;-62
2021/03/15 09:54:56;;;;;;;1.70;0.90;;;;;;;8.14;61.19;97157.22;8334387;28;20201;-62
2021/03/15 09:59:10;;;;;;;0.97;0.90;;;;;;;7.87;61.46;97161.13;8334106;28;20263;-62
2021/03/15 10:03:20;;;;;;;1.10;0.80;;;;;;;7.88;61.37;97163.63;8334032;28;20201;-62
2021/03/15 10:07:22;;;;;;;0.70;0.70;;;;;;;7.98;61.39;97154.53;8333525;28;20213;-62
2021/03/15 10:11:23;;;;;;;2.80;0.83;;;;;;;8.03;61.26;97154.31;8333649;28;20220;-62
2021/03/15 10:15:27;;;;;;;2.87;0.90;;;;;;;8.19;61.94;97155.28;8333709;28;20213;-62
2021/03/15 10:19:31;;;;;;;0.80;0.80;;;;;;;8.29;61.27;97158.25;8333482;28;20251;-62
2021/03/15 10:23:33;;;;;;;1.17;0.77;;;;;;;8.09;61.42;97150.63;8333307;28;20215;-62
2021/03/15 10:27:36;;;;;;;0.97;0.80;;;;;;;8.00;60.91;97155.31;8332023;28;20295;-62
2021/03/15 10:31:40;;;;;;;0.67;0.63;;;;;;;8.02;60.92;97161.22;8342589;28;20239;-63
2021/03/15 10:35:42;;;;;;;1.10;1.00;;;;;;;7.78;61.87;97162.38;8365835;28;20247;-62
2021/03/15 10:39:45;;;;;;;0.70;0.70;;;;;;;7.86;62.68;97165.41;8366168;28;20242;-62
2021/03/15 10:43:47;;;;;;;0.90;0.90;;;;;;;7.94;61.34;97165.06;8365948;28;20200;-63
2021/03/15 10:47:50;;;;;;;0.73;0.73;;;;;;;8.01;61.88;97154.41;8364847;28;20231;-63
2021/03/15 10:51:55;;;;;;;1.10;0.80;;;;;;;7.72;61.24;97165.22;8365559;28;20222;-63
2021/03/15 10:55:57;;;;;;;1.30;0.80;;;;;;;7.99;62.30;97165.69;8365897;28;20212;-63
2021/03/15 11:00:23;;;;;;;0.80;0.80;;;;;;;7.93;61.25;97164.22;8366615;28;20207;-63
2021/03/15 11:04:33;;;;;;;0.83;0.83;;;;;;;8.25;60.52;97161.06;8350378;28;20212;-64
2021/03/15 11:08:35;;;;;;;1.20;1.10;;;;;;;8.57;61.61;97165.53;8332513;28;20231;-63
2021/03/15 11:12:39;;;;;;;0.90;0.90;;;;;;;8.64;60.69;97162.63;8345218;28;20350;-64
2021/03/15 11:16:41;;;;;;;2.00;1.00;;;;;;;8.67;61.50;97168.47;8341989;28;20686;-63
2021/03/15 11:20:47;;;;;;;0.80;0.80;;;;;;;9.02;59.86;97168.44;8347696;28;20240;-64
2021/03/15 11:25:06;;;;;;;0.97;0.80;;;;;;;9.16;59.13;97162.59;8330726;28;20585;-64
2021/03/15 11:29:08;;;;;;;1.00;1.00;;;;;;;8.95;59.97;97170.53;8330304;28;20236;-63
2021/03/15 11:33:11;;;;;;;1.63;0.80;;;;;;;9.06;59.13;97172.53;8330311;28;20212;-64
2021/03/15 11:37:14;;;;;;;0.87;0.87;;;;;;;9.02;60.18;97170.22;8330317;28;20596;-64
2021/03/15 11:41:20;;;;;;;1.20;0.90;;;;;;;9.15;59.18;97176.41;8329826;28;20659;-64
2021/03/15 11:45:22;;;;;;;0.80;0.80;;;;;;;8.78;60.71;97179.13;8330099;28;20552;-64
2021/03/15 11:49:24;;;;;;;2.50;0.70;;;;;;;8.55;61.06;97182.00;8339894;28;20232;-62
2021/03/15 11:53:26;;;;;;;0.90;0.90;;;;;;;8.45;61.76;97175.59;8358462;28;20208;-62
2021/03/15 11:57:28;;;;;;;0.90;0.90;;;;;;;8.58;62.15;97172.34;8363690;28;20200;-62
2021/03/15 12:01:30;;;;;;;0.90;0.90;;;;;;;8.68;61.50;97177.06;8364545;28;20211;-61
2021/03/15 12:05:32;;;;;;;1.07;0.97;;;;;;;8.60;61.56;97173.13;8364337;28;20302;-64
2021/03/15 12:09:35;;;;;;;3.43;1.60;;;;;;;8.47;62.05;97173.78;8364960;28;20239;-64
2021/03/15 12:13:40;;;;;;;3.43;1.77;;;;;;;8.68;61.88;97175.31;8363804;28;20259;-64
2021/03/15 12:17:43;;;;;;;4.23;2.43;;;;;;;8.58;61.50;97177.50;8344332;28;20299;-71
2021/03/15 12:21:45;;;;;;;4.23;2.53;;;;;;;8.50;61.82;97187.38;8330414;28;20304;-63
2021/03/15 12:25:48;;;;;;;2.60;2.03;;;;;;;8.31;63.05;97191.72;8330850;28;20209;-63
2021/03/15 12:29:50;;;;;;;1.50;1.40;;;;;;;9.45;61.50;97192.09;8330337;28;20527;-63
2021/03/15 12:33:52;;;;;;;1.53;1.27;;;;;;;10.04;61.05;97192.41;8332343;28;20277;-62
2021/03/15 12:37:54;;;;;;;1.73;1.40;;;;;;;10.59;57.86;97188.53;8336654;28;20544;-62
2021/03/15 12:41:57;;;;;;;1.90;1.70;;;;;;;10.42;55.15;97189.50;8335882;28;20208;-63
2021/03/15 12:45:59;;;;;;;1.80;1.60;;;;;;;10.49;56.12;97189.97;8335835;28;20231;-62
2021/03/15 12:50:01;;;;;;;1.47;1.20;;;;;;;10.68;55.43;97193.22;8336628;28;20231;-62
2021/03/15 12:54:03;;;;;;;1.30;1.20;;;;;;;10.63;54.25;97191.78;8336262;28;20547;-62
2021/03/15 12:58:06;;;;;;;1.33;1.00;;;;;;;10.49;54.71;97195.16;8336381;28;20613;-64
2021/03/15 13:02:07;;;;;;;1.93;1.30;;;;;;;9.71;56.94;97203.66;8336506;28;20651;-63
2021/03/15 13:06:15;;;;;;;1.50;1.30;;;;;;;9.61;57.70;97197.28;8335994;28;20201;-62
2021/03/15 13:10:17;;;;;;;1.60;1.00;;;;;;;9.44;57.04;97193.00;8335884;28;20233;-62
2021/03/15 13:14:20;;;;;;;0.40;0.40;;;;;;;9.03;51.17;97187.38;8335338;28;20201;-63
2021/03/15 13:18:22;;;;;;;0.70;0.70;;;;;;;8.98;53.86;97191.00;8336631;28;20212;-63
2021/03/15 13:22:24;;;;;;;1.60;0.70;;;;;;;9.03;53.55;97210.63;8314348;28;20204;-62
2021/03/15 13:26:26;;;;;;;0.80;0.70;;;;;;;8.43;58.00;97229.84;8368603;28;20619;-62
2021/03/15 13:30:30;;;;;;;0.40;0.40;;;;;;;8.33;58.47;97221.69;8369099;28;20597;-63
2021/03/15 13:34:31;;;;;;;0.93;0.50;;;;;;;9.59;56.08;97219.78;8349639;28;20342;-65
2021/03/15 13:38:33;;;;;;;0.40;0.40;;;;;;;10.14;54.45;97234.13;8336019;28;20200;-63
2021/03/15 13:42:36;;;;;;;2.00;0.60;;;;;;;10.37;53.50;97222.56;8335940;28;20231;-63
2021/03/15 13:46:38;;;;;;;1.03;0.50;;;;;;;11.13;52.30;97232.91;8335378;28;20205;-62
2021/03/15 13:50:41;;;;;;;0.60;0.50;;;;;;;11.09;50.60;97231.41;8335266;28;20289;-63
2021/03/15 13:54:42;;;;;;;1.80;0.70;;;;;;;10.28;50.03;97235.97;8334685;28;20209;-62
2021/03/15 13:58:44;;;;;;;1.23;0.70;;;;;;;10.31;49.68;97239.25;8334158;28;20212;-62
2021/03/15 14:02:47;;;;;;;1.77;0.83;;;;;;;11.12;46.96;97241.63;8335277;28;20219;-62
2021/03/15 14:06:49;;;;;;;1.67;0.70;;;;;;;11.79;45.37;97241.13;8334376;28;20211;-63
2021/03/15 14:10:51;;;;;;;2.87;0.80;;;;;;;11.40;43.37;97237.38;8335131;28;20642;-62
2021/03/15 14:14:53;;;;;;;2.40;0.80;;;;;;;11.98;43.00;97242.63;8333768;28;20278;-62
2021/03/15 14:18:55;;;;;;;2.37;0.87;;;;;;;12.05;42.38;97241.31;8333491;28;20220;-63
2021/03/15 14:22:57;;;;;;;2.10;0.80;;;;;;;12.17;42.64;97243.16;8334049;28;20208;-62
2021/03/15 14:27:00;;;;;;;6.50;1.00;;;;;;;12.35;41.05;97245.53;8332975;28;20205;-64
2021/03/15 14:31:01;;;;;;;2.23;1.10;;;;;;;12.11;40.97;97244.38;8333533;28;20232;-63
2021/03/15 14:35:07;;;;;;;2.10;1.00;;;;;;;11.77;42.98;97244.75;8333330;28;20328;-63
2021/03/15 14:39:09;;;;;;;2.43;0.80;;;;;;;11.27;40.99;97255.44;8332726;28;20223;-63
2021/03/15 14:43:11;;;;;;;1.90;1.17;;;;;;;10.81;43.56;97265.84;8333432;28;20596;-63
2021/03/15 14:47:13;;;;;;;4.17;1.27;;;;;;;10.75;43.83;97264.41;8332767;28;20216;-63
2021/03/15 14:51:16;;;;;;;3.67;1.00;;;;;;;10.26;42.35;97267.13;8332245;28;20224;-63
2021/03/15 14:55:17;;;;;;;2.07;0.93;;;;;;;9.87;42.86;97270.91;8332851;28;20221;-63
2021/03/15 14:59:19;;;;;;;1.70;0.97;;;;;;;9.68;44.59;97275.38;8332371;28;20706;-63
2021/03/15 15:03:21;;;;;;;2.60;0.80;;;;;;;9.64;45.83;97277.28;8333260;28;20215;-63
2021/03/15 15:07:24;;;;;;;2.13;1.00;;;;;;;9.50;46.93;97292.63;8333432;28;20210;-63
2021/03/15 15:11:26;;;;;;;3.73;1.10;;;;;;;9.35;46.53;97292.53;8331230;28;20232;-63
2021/03/15 15:15:29;;;;;;;5.90;2.53;;;;;;;9.34;47.16;97293.41;8332135;28;20209;-63
2021/03/15 15:19:45;;;;;;;3.30;1.10;;;;;;;9.77;45.86;97295.59;8332188;28;20270;-63
2021/03/15 15:23:48;;;;;;;3.13;0.90;;;;;;;10.35;46.06;97296.88;8332610;28;20614;-64
2021/03/15 15:27:51;;;;;;;1.47;0.80;;;;;;;10.60;45.19;97304.13;8330956;28;20204;-64
2021/03/15 15:31:52;;;;;;;1.93;0.80;;;;;;;9.95;47.09;97309.28;8331355;28;20788;-64
2021/03/15 15:35:55;;;;;;;3.80;0.70;;;;;;;9.42;49.13;97318.88;8331405;28;20232;-64
2021/03/15 15:39:57;;;;;;;1.50;0.73;;;;;;;9.57;49.16;97312.94;8330970;28;20219;-64
2021/03/15 15:43:59;;;;;;;0.73;0.60;;;;;;;9.56;48.04;97313.84;8332413;28;20228;-64
2021/03/15 15:48:01;;;;;;;0.93;0.60;;;;;;;10.02;48.25;97318.41;8330489;28;20216;-63
2021/03/15 15:52:07;;;;;;;1.67;0.63;;;;;;;10.24;47.77;97307.75;8330580;28;20222;-63
2021/03/15 15:56:09;;;;;;;2.13;0.73;;;;;;;10.15;47.93;97313.44;8331411;28;20551;-64
2021/03/15 16:00:13;;;;;;;1.10;0.60;;;;;;;10.26;47.29;97311.13;8331833;28;20226;-64
2021/03/15 16:04:14;;;;;;;16.27;1.43;;;;;;;11.65;62.31;97329.28;8330522;28;20204;-63
2021/03/15 16:08:17;;;;;;;13.53;1.43;;;;;;;13.12;53.02;97327.19;8331375;28;20223;-63
2021/03/15 16:12:20;;;;;;;7.30;1.17;;;;;;;13.60;48.84;97321.50;8330369;28;20684;-63
2021/03/15 16:16:23;;;;;;;3.43;1.10;;;;;;;13.89;46.35;97330.78;8331337;28;20599;-63
2021/03/15 16:20:38;;;;;;;5.67;1.37;;;;;;;13.94;47.05;97327.88;8331456;28;20516;-63
2021/03/15 16:24:39;;;;;;;3.27;1.27;;;;;;;14.06;44.53;97334.00;8331161;28;20259;-63
2021/03/15 16:28:42;;;;;;;2.00;1.13;;;;;;;12.58;42.02;97337.56;8329917;28;20226;-65
2021/03/15 16:32:46;;;;;;;5.03;1.70;;;;;;;11.97;43.75;97332.59;8331208;28;20528;-65
2021/03/15 16:36:48;;;;;;;4.90;2.30;;;;;;;11.49;45.52;97340.56;8330334;28;20232;-66
2021/03/15 16:40:50;;;;;;;4.77;2.07;;;;;;;11.12;45.38;97341.84;8331274;28;20208;-65
2021/03/15 16:44:55;;;;;;;4.17;2.33;;;;;;;10.84;46.76;97347.72;8332108;28;20335;-66
2021/03/15 16:48:58;;;;;;;6.87;4.30;;;;;;;10.69;47.42;97349.41;8329702;28;20243;-65
2021/03/15 16:53:00;;;;;;;13.90;3.10;;;;;;;10.56;48.34;97349.22;8330653;28;20205;-64
2021/03/15 16:57:02;;;;;;;4.17;2.47;;;;;;;10.40;48.57;97348.41;8329903;28;20611;-64
2021/03/15 17:01:05;;;;;;;6.80;3.50;;;;;;;10.33;49.10;97360.81;8330825;28;20215;-64
2021/03/15 17:05:09;;;;;;;11.83;8.30;;;;;;;10.41;49.37;97369.00;8330385;28;20281;-63
2021/03/15 17:09:11;;;;;;;13.97;10.23;;;;;;;10.14;49.76;97359.16;8330694;28;20690;-64
2021/03/15 17:13:13;;;;;;;8.97;5.80;;;;;;;10.10;49.94;97368.00;8330160;28;20288;-64
2021/03/15 17:17:16;;;;;;;16.33;8.57;;;;;;;9.95;50.63;97381.72;8330818;28;20215;-63
2021/03/15 17:21:38;;;;;;;18.73;12.97;;;;;;;9.94;50.72;97380.06;8335305;28;20196;-63
2021/03/15 17:25:39;;;;;;;9.87;7.40;;;;;;;9.86;50.96;97384.78;8336344;28;20260;-63
2021/03/15 17:29:42;;;;;;;3.43;2.20;;;;;;;9.68;51.16;97389.97;8336582;28;20603;-63
2021/03/15 17:33:45;;;;;;;4.73;2.40;;;;;;;9.75;51.67;97391.34;8335458;28;20675;-63
2021/03/15 17:37:48;;;;;;;5.77;2.50;;;;;;;9.77;50.86;97388.69;8335078;28;20264;-62
2021/03/15 17:41:49;;;;;;;5.53;2.97;;;;;;;9.71;50.91;97395.00;8334568;28;20274;-63
2021/03/15 17:45:51;;;;;;;3.77;2.50;;;;;;;9.61;50.93;97398.09;8334709;28;20215;-63
2021/03/15 17:49:54;;;;;;;7.67;4.10;;;;;;;9.52;51.19;97394.19;8335881;28;20322;-62
2021/03/15 17:53:56;;;;;;;5.47;3.00;;;;;;;9.37;51.43;97395.81;8334800;28;20212;-63
2021/03/15 17:58:00;;;;;;;7.43;5.67;;;;;;;9.39;51.54;97406.91;8334554;28;20204;-63
2021/03/15 18:02:01;;;;;;;3.40;2.60;;;;;;;9.27;51.89;97402.31;8335200;28;20525;-63
2021/03/15 18:06:05;;;;;;;3.93;3.27;;;;;;;9.13;52.50;97405.56;8334411;28;20223;-63
2021/03/15 18:10:09;;;;;;;3.50;2.50;;;;;;;9.12;51.97;97422.81;8334541;28;20247;-64
2021/03/15 18:14:10;;;;;;;3.67;2.87;;;;;;;9.07;52.44;97421.38;8335950;28;20212;-63
2021/03/15 18:18:12;;;;;;;3.47;2.13;;;;;;;8.97;52.38;97423.53;8335525;28;20303;-63
2021/03/15 18:22:18;;;;;;;7.57;3.17;;;;;;;8.86;52.77;97426.59;8334731;28;20204;-63
2021/03/15 18:26:20;;;;;;;5.83;3.80;;;;;;;8.84;53.24;97441.34;8334522;28;20610;-63
2021/03/15 18:30:23;;;;;;;3.80;2.50;;;;;;;8.60;54.72;97444.13;8334187;28;20711;-63
2021/03/15 18:34:25;;;;;;;3.90;2.30;;;;;;;8.55;57.05;97461.56;8334213;28;20707;-63
2021/03/15 18:38:28;;;;;;;4.97;2.87;;;;;;;8.28;58.84;97498.84;8334331;28;20567;-62
2021/03/15 18:42:30;;;;;;;5.27;2.90;;;;;;;8.35;58.69;97498.50;8333916;28;20262;-63
2021/03/15 18:46:32;;;;;;;3.90;2.80;;;;;;;8.36;58.86;97494.22;8333705;28;20687;-63
2021/03/15 18:50:35;;;;;;;3.50;2.60;;;;;;;8.29;58.79;97485.88;8333448;28;20278;-63
2021/03/15 18:54:38;;;;;;;5.73;3.53;;;;;;;8.38;58.32;97482.91;8334554;28;20603;-63
2021/03/15 18:58:41;;;;;;;3.17;2.70;;;;;;;8.31;58.25;97484.06;8334549;28;20543;-63
2021/03/15 19:02:43;;;;;;;4.27;3.40;;;;;;;8.07;59.91;97487.69;8332809;28;20282;-62
2021/03/15 19:06:46;;;;;;;12.47;3.10;;;;;;;8.83;72.17;97500.78;8334068;28;20257;-62
2021/03/15 19:10:48;;;;;;;6.70;2.80;;;;;;;11.31;56.91;97510.13;8332228;28;20236;-62
2021/03/15 19:14:50;;;;;;;3.50;2.80;;;;;;;10.59;52.66;97519.97;8329048;28;20204;-63
2021/03/15 19:18:52;;;;;;;4.43;2.80;;;;;;;9.30;57.01;97519.28;8331900;28;20219;-63
2021/03/15 19:23:01;;;;;;;2.33;2.13;;;;;;;8.68;58.13;97513.50;8332826;28;20196;-63